createdAt,value
2023-03-29T00:00:00.520Z,993.9
2023-03-29T00:10:00.528Z,993.9
2023-03-29T00:20:00.608Z,993.9
2023-03-29T00:30:00.530Z,993.9
2023-03-29T00:40:00.570Z,994.0
2023-03-29T00:50:00.526Z,993.9
2023-03-29T01:00:00.539Z,993.9
2023-03-29T01:10:00.520Z,993.8
2023-03-29T01:20:00.541Z,993.7
2023-03-29T01:30:00.584Z,993.7
2023-03-29T01:40:00.521Z,993.7
2023-03-29T01:50:00.538Z,993.7
2023-03-29T02:00:00.541Z,993.9
2023-03-29T02:10:00.539Z,993.8
2023-03-29T02:20:00.545Z,993.8
2023-03-29T02:30:00.566Z,993.8
2023-03-29T02:40:00.556Z,993.8
2023-03-29T02:50:00.564Z,993.9
2023-03-29T03:00:00.531Z,993.9
2023-03-29T03:10:00.524Z,994.0
2023-03-29T03:20:00.699Z,993.8
2023-03-29T03:30:00.537Z,993.8
2023-03-29T03:40:00.573Z,993.8
2023-03-29T03:50:00.533Z,993.9
2023-03-29T04:00:00.541Z,994.0
2023-03-29T04:10:00.532Z,993.9
2023-03-29T04:20:00.521Z,994.0
2023-03-29T04:30:00.535Z,994.0
2023-03-29T04:40:00.558Z,994.1
2023-03-29T04:50:00.556Z,994.3
2023-03-29T05:00:00.547Z,994.2
2023-03-29T05:10:00.752Z,994.3
2023-03-29T05:20:00.574Z,994.3
2023-03-29T05:30:00.561Z,994.3
2023-03-29T05:40:05.674Z,994.3
2023-03-29T05:50:00.552Z,994.4
2023-03-29T06:00:00.545Z,994.4
2023-03-29T06:10:00.529Z,994.4
2023-03-29T06:20:00.547Z,994.5
2023-03-29T06:30:00.542Z,994.5
2023-03-29T06:40:00.530Z,994.5
2023-03-29T06:50:00.601Z,994.5
2023-03-29T07:00:00.594Z,994.6
2023-03-29T07:10:00.546Z,994.8
2023-03-29T07:20:00.529Z,994.9
2023-03-29T07:30:00.767Z,994.9
2023-03-29T07:40:00.564Z,994.8
2023-03-29T07:50:00.526Z,994.9
2023-03-29T08:00:00.542Z,995.0
2023-03-29T08:10:00.611Z,994.8
2023-03-29T08:20:00.579Z,994.8
2023-03-29T08:30:00.559Z,994.8
2023-03-29T08:40:00.551Z,994.9
2023-03-29T08:50:00.539Z,994.8
2023-03-29T09:00:00.523Z,994.8
2023-03-29T09:10:00.560Z,994.6
2023-03-29T09:20:00.538Z,994.4
2023-03-29T09:30:00.550Z,994.4
2023-03-29T09:40:01.602Z,994.2
2023-03-29T09:50:00.535Z,994.2
2023-03-29T10:00:00.533Z,994.2
2023-03-29T10:10:00.556Z,994.2
2023-03-29T10:20:03.725Z,994.0
2023-03-29T10:30:00.530Z,993.9
2023-03-29T10:40:00.554Z,993.8
2023-03-29T10:50:00.537Z,993.8
2023-03-29T11:00:00.539Z,993.6
2023-03-29T11:10:00.534Z,993.5
2023-03-29T11:20:02.494Z,993.5
2023-03-29T11:30:00.545Z,993.4
2023-03-29T11:40:00.541Z,993.2
2023-03-29T11:50:00.514Z,993.2
2023-03-29T12:00:00.523Z,993.1
2023-03-29T12:10:00.515Z,993.0
2023-03-29T12:20:00.521Z,992.8
2023-03-29T12:30:00.521Z,992.7
2023-03-29T12:40:00.564Z,992.6
2023-03-29T12:50:00.593Z,992.5
2023-03-29T13:00:00.738Z,992.4
2023-03-29T13:10:00.542Z,992.2
2023-03-29T13:20:00.526Z,992.2
2023-03-29T13:30:00.551Z,992.1
2023-03-29T13:40:00.576Z,992.1
2023-03-29T13:50:00.536Z,991.9
2023-03-29T14:00:00.534Z,991.8
2023-03-29T14:10:00.547Z,991.9
2023-03-29T14:20:00.532Z,991.8
2023-03-29T14:30:00.525Z,991.7
2023-03-29T14:40:00.528Z,991.7
2023-03-29T14:50:00.590Z,991.6
2023-03-29T15:00:00.584Z,991.6
2023-03-29T15:10:00.710Z,991.6
2023-03-29T15:20:00.716Z,991.5
2023-03-29T15:30:00.532Z,991.5
2023-03-29T15:40:00.551Z,991.4
2023-03-29T15:50:00.549Z,991.3
2023-03-29T16:00:00.538Z,991.3
2023-03-29T16:10:00.552Z,991.2
2023-03-29T16:20:00.562Z,991.2
2023-03-29T16:30:00.551Z,991.2
2023-03-29T16:40:00.577Z,991.1
2023-03-29T16:50:00.633Z,991.1
2023-03-29T17:00:00.545Z,991.2
2023-03-29T17:10:00.521Z,991.0
2023-03-29T17:20:00.553Z,991.0
2023-03-29T17:30:00.517Z,991.0
2023-03-29T17:40:00.550Z,991.2
2023-03-29T17:50:00.522Z,991.2
2023-03-29T18:00:00.686Z,991.4
2023-03-29T18:10:00.558Z,991.4
2023-03-29T18:20:00.541Z,991.5
2023-03-29T18:30:00.582Z,991.6
2023-03-29T18:40:00.543Z,991.6
2023-03-29T18:50:00.596Z,991.6
2023-03-29T19:00:00.528Z,991.6
2023-03-29T19:10:00.516Z,991.6
2023-03-29T19:20:00.551Z,991.7
2023-03-29T19:30:00.548Z,991.7
2023-03-29T19:40:00.521Z,991.7
2023-03-29T19:50:00.565Z,991.6
2023-03-29T20:00:00.545Z,991.6
2023-03-29T20:10:00.543Z,991.5
2023-03-29T20:20:00.541Z,991.4
2023-03-29T20:30:00.563Z,991.3
2023-03-29T20:40:00.545Z,991.2
2023-03-29T20:50:00.694Z,991.3
2023-03-29T21:00:00.569Z,991.2
2023-03-29T21:10:00.602Z,991.2
2023-03-29T21:20:00.550Z,991.2
2023-03-29T21:30:00.545Z,991.2
2023-03-29T21:40:00.551Z,991.1
2023-03-29T21:50:00.529Z,991.2
2023-03-29T22:00:00.595Z,991.2
2023-03-29T22:10:00.580Z,991.2
2023-03-29T22:20:00.537Z,991.2
2023-03-29T22:30:00.544Z,991.2
2023-03-29T22:40:00.554Z,991.2
2023-03-29T22:50:00.574Z,991.3
2023-03-29T23:00:00.571Z,991.3
2023-03-29T23:10:00.536Z,991.3
2023-03-29T23:20:00.650Z,991.3
2023-03-29T23:30:00.547Z,991.3
2023-03-29T23:40:00.584Z,991.1
2023-03-29T23:50:00.564Z,991.1
